Kypros Bravery — 5BET4 — position and weather

sailwx.info

Track history (hours):
 
Tides and Currents Weather Stations Pressure Air Temp Water Temp Dewpoint Dewpoint Depression Visibility Wind Speed Wind Dir Waves Ship Positions

Kypros Bravery

Last reported at 2018-Apr-16 03:19 UTC. Time now 2018-May-23 15:13 UTC.
Position N 01°14' E 103°58'.
Warning: this ship's position is 37 days out of date.

Length 225 m; draft 14 m.

Type: Cargo ship. MMSI: 212498000.

Date/timePositionNaut miles runAvg speedWind from/ knotsBaromVisibWave heightAir tempDewpointWater temp
2018-Apr-16 03:19N 01°14' E 103°58'2 5.2
2018-Apr-16 02:56N 01°15' E 103°57'2 5.0
2018-Apr-16 02:30N 01°17' E 103°56'0 0.4
2018-Apr-16 01:41N 01°17' E 103°56'0 0.0
2018-Apr-16 01:26N 01°17' E 103°56'0 0.0
2018-Apr-16 00:47N 01°17' E 103°56'0 0.0
2018-Apr-16 00:17N 01°17' E 103°56'0 0.5
2018-Apr-15 23:53N 01°17' E 103°56'0 0.2
2018-Apr-15 23:29N 01°17' E 103°56'0 0.0
2018-Apr-15 22:56N 01°17' E 103°56'0 0.0
2018-Apr-15 22:17N 01°17' E 103°56'0 0.0
2018-Apr-15 21:50N 01°17' E 103°56'0 0.0
2018-Apr-15 21:29N 01°17' E 103°56'0 0.0
2018-Apr-15 20:59N 01°17' E 103°56'0 0.0
2018-Apr-15 20:26N 01°17' E 103°56'0 0.0
2018-Apr-15 19:59N 01°17' E 103°56'0 0.0
2018-Apr-15 19:29N 01°17' E 103°56'0 0.0
2018-Apr-15 18:59N 01°17' E 103°56'0 0.1
2018-Apr-15 18:29N 01°17' E 103°56'1 1.2
2018-Apr-15 18:01N 01°17' E 103°56'2 4.3
2018-Apr-15 17:30N 01°16' E 103°58'1 2.6
2018-Apr-15 17:00N 01°15' E 103°59'3 5.7
2018-Apr-15 16:30N 01°14' E 103°56'4 7.6
2018-Apr-15 16:00N 01°12' E 103°53'4 7.6
2018-Apr-15 15:30N 01°10' E 103°50'5 9.6
2018-Apr-15 15:00N 01°08' E 103°45'610.4
2018-Apr-15 14:28N 01°04' E 103°41'4 9.3
2018-Apr-15 14:00N 01°04' E 103°37'511.0
2018-Apr-15 13:30N 01°07' E 103°32'610.8
2018-Apr-15 12:59N 01°10' E 103°27'611.9
2018-Apr-15 12:28N 01°14' E 103°23'611.7
2018-Apr-15 11:59N 01°17' E 103°18'  
Track history (hours):
 
Tides and Currents Weather Stations Pressure Air Temp Water Temp Dewpoint Dewpoint Depression Visibility Wind Speed Wind Dir Waves Ship Positions

Kypros Bravery

Last reported at 2018-Apr-16 03:19 UTC. Time now 2018-May-23 15:13 UTC.
Position N 01°14' E 103°58'.
Warning: this ship's position is 37 days out of date.

Length 225 m; draft 14 m.

Type: Cargo ship. MMSI: 212498000.

Date/timePositionNaut miles runAvg speedWind from/ knotsBaromVisibWave heightAir tempDewpointWater temp
2018-Apr-16 03:19N 01°14' E 103°58'2 5.2
2018-Apr-16 02:56N 01°15' E 103°57'2 5.0
2018-Apr-16 02:30N 01°17' E 103°56'0 0.4
2018-Apr-16 01:41N 01°17' E 103°56'0 0.0
2018-Apr-16 01:26N 01°17' E 103°56'0 0.0
2018-Apr-16 00:47N 01°17' E 103°56'0 0.0
2018-Apr-16 00:17N 01°17' E 103°56'0 0.5
2018-Apr-15 23:53N 01°17' E 103°56'0 0.2
2018-Apr-15 23:29N 01°17' E 103°56'0 0.0
2018-Apr-15 22:56N 01°17' E 103°56'0 0.0
2018-Apr-15 22:17N 01°17' E 103°56'0 0.0
2018-Apr-15 21:50N 01°17' E 103°56'0 0.0
2018-Apr-15 21:29N 01°17' E 103°56'0 0.0
2018-Apr-15 20:59N 01°17' E 103°56'0 0.0
2018-Apr-15 20:26N 01°17' E 103°56'0 0.0
2018-Apr-15 19:59N 01°17' E 103°56'0 0.0
2018-Apr-15 19:29N 01°17' E 103°56'0 0.0
2018-Apr-15 18:59N 01°17' E 103°56'0 0.1
2018-Apr-15 18:29N 01°17' E 103°56'1 1.2
2018-Apr-15 18:01N 01°17' E 103°56'2 4.3
2018-Apr-15 17:30N 01°16' E 103°58'1 2.6
2018-Apr-15 17:00N 01°15' E 103°59'3 5.7
2018-Apr-15 16:30N 01°14' E 103°56'4 7.6
2018-Apr-15 16:00N 01°12' E 103°53'4 7.6
2018-Apr-15 15:30N 01°10' E 103°50'5 9.6
2018-Apr-15 15:00N 01°08' E 103°45'610.4
2018-Apr-15 14:28N 01°04' E 103°41'4 9.3
2018-Apr-15 14:00N 01°04' E 103°37'511.0
2018-Apr-15 13:30N 01°07' E 103°32'610.8
2018-Apr-15 12:59N 01°10' E 103°27'611.9
2018-Apr-15 12:28N 01°14' E 103°23'611.7
2018-Apr-15 11:59N 01°17' E 103°18'  

Dump ship's entire track history